sensor_id;sensor_type;location;lat;lon;timestamp;temperature;humidity
15450;DHT22;7826;49.784;9.934;2023-06-22T00:01:20;20.70;99.90
15450;DHT22;7826;49.784;9.934;2023-06-22T00:03:48;20.70;99.90
15450;DHT22;7826;49.784;9.934;2023-06-22T00:06:15;20.70;99.90
15450;DHT22;7826;49.784;9.934;2023-06-22T00:08:41;20.60;99.90
15450;DHT22;7826;49.784;9.934;2023-06-22T00:11:08;20.60;99.90
15450;DHT22;7826;49.784;9.934;2023-06-22T00:13:35;20.60;99.90
15450;DHT22;7826;49.784;9.934;2023-06-22T00:16:01;20.60;99.90
15450;DHT22;7826;49.784;9.934;2023-06-22T00:18:28;20.70;99.90
15450;DHT22;7826;49.784;9.934;2023-06-22T00:20:56;20.60;99.90
15450;DHT22;7826;49.784;9.934;2023-06-22T00:23:24;20.60;99.90
15450;DHT22;7826;49.784;9.934;2023-06-22T00:25:51;20.60;99.90
15450;DHT22;7826;49.784;9.934;2023-06-22T00:28:18;20.60;99.90
15450;DHT22;7826;49.784;9.934;2023-06-22T00:30:44;20.70;99.90
15450;DHT22;7826;49.784;9.934;2023-06-22T00:33:11;20.60;99.90
15450;DHT22;7826;49.784;9.934;2023-06-22T00:35:38;20.60;99.90
15450;DHT22;7826;49.784;9.934;2023-06-22T00:38:07;20.60;99.90
15450;DHT22;7826;49.784;9.934;2023-06-22T00:40:34;20.60;99.90
15450;DHT22;7826;49.784;9.934;2023-06-22T00:43:01;20.50;99.90
15450;DHT22;7826;49.784;9.934;2023-06-22T00:45:27;20.50;99.90
15450;DHT22;7826;49.784;9.934;2023-06-22T00:47:56;20.40;99.90
15450;DHT22;7826;49.784;9.934;2023-06-22T00:50:26;20.40;99.90
15450;DHT22;7826;49.784;9.934;2023-06-22T00:52:55;20.30;99.90
15450;DHT22;7826;49.784;9.934;2023-06-22T00:55:23;20.20;99.90
15450;DHT22;7826;49.784;9.934;2023-06-22T00:57:50;20.10;99.90
15450;DHT22;7826;49.784;9.934;2023-06-22T01:00:16;20.00;99.90
15450;DHT22;7826;49.784;9.934;2023-06-22T01:02:46;19.90;99.90
15450;DHT22;7826;49.784;9.934;2023-06-22T01:05:14;20.00;99.90
15450;DHT22;7826;49.784;9.934;2023-06-22T01:16:41;20.00;99.90
15450;DHT22;7826;49.784;9.934;2023-06-22T01:19:37;19.90;99.90
15450;DHT22;7826;49.784;9.934;2023-06-22T01:22:08;19.80;99.90
15450;DHT22;7826;49.784;9.934;2023-06-22T01:25:07;19.80;99.90
15450;DHT22;7826;49.784;9.934;2023-06-22T01:30:16;19.80;99.90
15450;DHT22;7826;49.784;9.934;2023-06-22T01:32:42;19.80;99.90
15450;DHT22;7826;49.784;9.934;2023-06-22T01:35:10;19.80;99.90
15450;DHT22;7826;49.784;9.934;2023-06-22T01:37:37;19.80;99.90
15450;DHT22;7826;49.784;9.934;2023-06-22T01:40:06;19.80;99.90
15450;DHT22;7826;49.784;9.934;2023-06-22T01:42:35;19.80;99.90
15450;DHT22;7826;49.784;9.934;2023-06-22T01:45:03;19.90;99.90
15450;DHT22;7826;49.784;9.934;2023-06-22T01:47:30;19.80;99.90
15450;DHT22;7826;49.784;9.934;2023-06-22T01:49:57;19.80;99.90
15450;DHT22;7826;49.784;9.934;2023-06-22T01:52:24;19.80;99.90
15450;DHT22;7826;49.784;9.934;2023-06-22T01:54:50;19.80;99.90
15450;DHT22;7826;49.784;9.934;2023-06-22T01:57:17;19.70;99.90
15450;DHT22;7826;49.784;9.934;2023-06-22T01:59:52;19.70;99.90
15450;DHT22;7826;49.784;9.934;2023-06-22T02:02:23;19.70;99.90
15450;DHT22;7826;49.784;9.934;2023-06-22T02:05:07;19.60;99.90
15450;DHT22;7826;49.784;9.934;2023-06-22T02:07:45;19.70;99.90
15450;DHT22;7826;49.784;9.934;2023-06-22T02:10:14;19.70;99.90
15450;DHT22;7826;49.784;9.934;2023-06-22T02:12:43;19.60;99.90
15450;DHT22;7826;49.784;9.934;2023-06-22T02:15:11;19.50;99.90
15450;DHT22;7826;49.784;9.934;2023-06-22T02:17:38;19.50;99.90
15450;DHT22;7826;49.784;9.934;2023-06-22T02:20:06;19.50;99.90
15450;DHT22;7826;49.784;9.934;2023-06-22T02:22:35;19.50;99.90
15450;DHT22;7826;49.784;9.934;2023-06-22T02:25:01;19.60;99.90
15450;DHT22;7826;49.784;9.934;2023-06-22T02:27:28;19.60;99.90
15450;DHT22;7826;49.784;9.934;2023-06-22T02:29:56;19.60;99.90
15450;DHT22;7826;49.784;9.934;2023-06-22T02:32:23;19.60;99.90
15450;DHT22;7826;49.784;9.934;2023-06-22T02:34:49;19.70;99.90
15450;DHT22;7826;49.784;9.934;2023-06-22T02:37:16;19.70;99.90
15450;DHT22;7826;49.784;9.934;2023-06-22T02:39:43;19.60;99.90
15450;DHT22;7826;49.784;9.934;2023-06-22T02:42:10;19.70;99.90
15450;DHT22;7826;49.784;9.934;2023-06-22T02:44:37;19.70;99.90
15450;DHT22;7826;49.784;9.934;2023-06-22T02:47:04;19.70;99.90
15450;DHT22;7826;49.784;9.934;2023-06-22T02:49:31;19.80;99.90
15450;DHT22;7826;49.784;9.934;2023-06-22T02:51:57;19.80;99.90
15450;DHT22;7826;49.784;9.934;2023-06-22T02:54:24;19.80;99.90
15450;DHT22;7826;49.784;9.934;2023-06-22T02:56:50;19.80;99.90
15450;DHT22;7826;49.784;9.934;2023-06-22T02:59:17;19.80;99.90
15450;DHT22;7826;49.784;9.934;2023-06-22T03:01:44;19.80;99.90
15450;DHT22;7826;49.784;9.934;2023-06-22T03:04:10;19.70;99.90
15450;DHT22;7826;49.784;9.934;2023-06-22T03:06:37;19.70;99.90
15450;DHT22;7826;49.784;9.934;2023-06-22T03:09:07;19.70;99.90
15450;DHT22;7826;49.784;9.934;2023-06-22T03:11:34;19.70;99.90
15450;DHT22;7826;49.784;9.934;2023-06-22T03:14:01;19.70;99.90
15450;DHT22;7826;49.784;9.934;2023-06-22T03:16:28;19.70;99.90
15450;DHT22;7826;49.784;9.934;2023-06-22T03:18:55;19.70;99.90
15450;DHT22;7826;49.784;9.934;2023-06-22T03:21:22;19.70;99.90
15450;DHT22;7826;49.784;9.934;2023-06-22T03:23:49;19.70;99.90
15450;DHT22;7826;49.784;9.934;2023-06-22T03:26:19;19.70;99.90
15450;DHT22;7826;49.784;9.934;2023-06-22T03:28:46;19.80;99.90
15450;DHT22;7826;49.784;9.934;2023-06-22T03:31:12;19.80;99.90
15450;DHT22;7826;49.784;9.934;2023-06-22T03:33:39;19.80;99.90
15450;DHT22;7826;49.784;9.934;2023-06-22T03:36:06;19.70;99.90
15450;DHT22;7826;49.784;9.934;2023-06-22T03:38:33;19.70;99.90
15450;DHT22;7826;49.784;9.934;2023-06-22T03:41:00;19.70;99.90
15450;DHT22;7826;49.784;9.934;2023-06-22T03:43:26;19.70;99.90
15450;DHT22;7826;49.784;9.934;2023-06-22T03:45:53;19.80;99.90
15450;DHT22;7826;49.784;9.934;2023-06-22T03:48:19;19.70;99.90
15450;DHT22;7826;49.784;9.934;2023-06-22T03:50:46;19.70;99.90
15450;DHT22;7826;49.784;9.934;2023-06-22T03:53:12;19.70;99.90
15450;DHT22;7826;49.784;9.934;2023-06-22T03:55:50;19.70;99.90
15450;DHT22;7826;49.784;9.934;2023-06-22T03:58:18;19.80;99.90
15450;DHT22;7826;49.784;9.934;2023-06-22T04:00:49;19.80;99.90
15450;DHT22;7826;49.784;9.934;2023-06-22T04:03:17;19.80;99.90
15450;DHT22;7826;49.784;9.934;2023-06-22T04:05:47;19.80;99.90
15450;DHT22;7826;49.784;9.934;2023-06-22T04:08:14;19.80;99.90
15450;DHT22;7826;49.784;9.934;2023-06-22T04:10:41;19.90;99.90
15450;DHT22;7826;49.784;9.934;2023-06-22T04:13:08;19.80;99.90
15450;DHT22;7826;49.784;9.934;2023-06-22T04:15:35;19.80;99.90
15450;DHT22;7826;49.784;9.934;2023-06-22T04:18:01;19.80;99.90
15450;DHT22;7826;49.784;9.934;2023-06-22T04:20:28;19.90;99.90
15450;DHT22;7826;49.784;9.934;2023-06-22T04:22:54;20.00;99.90
15450;DHT22;7826;49.784;9.934;2023-06-22T04:25:22;20.10;99.90
15450;DHT22;7826;49.784;9.934;2023-06-22T04:27:49;20.20;99.90
15450;DHT22;7826;49.784;9.934;2023-06-22T04:30:16;20.30;99.90
15450;DHT22;7826;49.784;9.934;2023-06-22T04:32:43;20.30;99.90
15450;DHT22;7826;49.784;9.934;2023-06-22T04:35:10;20.40;99.90
15450;DHT22;7826;49.784;9.934;2023-06-22T04:37:37;20.40;99.90
15450;DHT22;7826;49.784;9.934;2023-06-22T04:40:06;20.40;99.90
15450;DHT22;7826;49.784;9.934;2023-06-22T04:42:34;20.40;99.90
15450;DHT22;7826;49.784;9.934;2023-06-22T04:45:02;20.50;99.90
15450;DHT22;7826;49.784;9.934;2023-06-22T04:47:29;20.50;99.90
15450;DHT22;7826;49.784;9.934;2023-06-22T04:49:55;20.60;99.90
15450;DHT22;7826;49.784;9.934;2023-06-22T04:52:22;20.60;99.90
15450;DHT22;7826;49.784;9.934;2023-06-22T04:54:49;20.50;99.90
15450;DHT22;7826;49.784;9.934;2023-06-22T04:57:21;20.50;99.90
15450;DHT22;7826;49.784;9.934;2023-06-22T04:59:57;20.60;99.90
15450;DHT22;7826;49.784;9.934;2023-06-22T05:02:23;20.60;99.90
15450;DHT22;7826;49.784;9.934;2023-06-22T05:04:54;20.70;99.90
15450;DHT22;7826;49.784;9.934;2023-06-22T05:07:23;20.70;99.90
15450;DHT22;7826;49.784;9.934;2023-06-22T05:09:51;20.80;99.90
15450;DHT22;7826;49.784;9.934;2023-06-22T05:12:18;20.80;99.90
15450;DHT22;7826;49.784;9.934;2023-06-22T05:14:44;20.90;99.90
15450;DHT22;7826;49.784;9.934;2023-06-22T05:17:11;21.00;99.90
15450;DHT22;7826;49.784;9.934;2023-06-22T05:19:41;21.10;99.90
15450;DHT22;7826;49.784;9.934;2023-06-22T05:22:11;21.10;99.90
15450;DHT22;7826;49.784;9.934;2023-06-22T05:24:38;21.20;99.90
15450;DHT22;7826;49.784;9.934;2023-06-22T05:27:05;21.30;99.90
15450;DHT22;7826;49.784;9.934;2023-06-22T05:29:32;21.40;99.90
15450;DHT22;7826;49.784;9.934;2023-06-22T05:31:58;21.40;99.90
15450;DHT22;7826;49.784;9.934;2023-06-22T05:34:25;21.60;99.90
15450;DHT22;7826;49.784;9.934;2023-06-22T05:36:52;21.70;99.90
15450;DHT22;7826;49.784;9.934;2023-06-22T05:39:18;21.70;99.90
15450;DHT22;7826;49.784;9.934;2023-06-22T05:41:45;21.70;99.90
15450;DHT22;7826;49.784;9.934;2023-06-22T05:44:12;21.90;99.90
15450;DHT22;7826;49.784;9.934;2023-06-22T05:46:43;21.90;99.90
15450;DHT22;7826;49.784;9.934;2023-06-22T05:49:12;21.90;99.90
15450;DHT22;7826;49.784;9.934;2023-06-22T05:51:40;21.90;99.90
15450;DHT22;7826;49.784;9.934;2023-06-22T05:54:06;21.90;99.90
15450;DHT22;7826;49.784;9.934;2023-06-22T05:56:35;21.90;99.90
15450;DHT22;7826;49.784;9.934;2023-06-22T05:59:01;22.10;99.90
15450;DHT22;7826;49.784;9.934;2023-06-22T06:01:28;22.10;99.90
15450;DHT22;7826;49.784;9.934;2023-06-22T06:03:54;22.30;99.90
15450;DHT22;7826;49.784;9.934;2023-06-22T06:06:21;22.50;99.90
15450;DHT22;7826;49.784;9.934;2023-06-22T06:08:49;22.50;99.90
15450;DHT22;7826;49.784;9.934;2023-06-22T06:11:15;22.50;99.90
15450;DHT22;7826;49.784;9.934;2023-06-22T06:13:42;22.60;99.90
15450;DHT22;7826;49.784;9.934;2023-06-22T06:16:08;22.70;99.90
15450;DHT22;7826;49.784;9.934;2023-06-22T06:18:35;22.70;99.90
15450;DHT22;7826;49.784;9.934;2023-06-22T06:21:03;22.70;99.90
15450;DHT22;7826;49.784;9.934;2023-06-22T06:23:30;22.70;99.90
15450;DHT22;7826;49.784;9.934;2023-06-22T06:25:56;22.60;99.90
15450;DHT22;7826;49.784;9.934;2023-06-22T06:28:25;22.70;99.90
15450;DHT22;7826;49.784;9.934;2023-06-22T06:30:51;22.80;99.90
15450;DHT22;7826;49.784;9.934;2023-06-22T06:33:18;22.90;99.90
15450;DHT22;7826;49.784;9.934;2023-06-22T06:35:45;23.00;99.90
15450;DHT22;7826;49.784;9.934;2023-06-22T06:38:11;23.30;99.90
15450;DHT22;7826;49.784;9.934;2023-06-22T06:40:38;23.50;99.90
15450;DHT22;7826;49.784;9.934;2023-06-22T06:43:05;23.80;99.90
15450;DHT22;7826;49.784;9.934;2023-06-22T06:45:31;24.10;99.90
15450;DHT22;7826;49.784;9.934;2023-06-22T06:48:00;24.30;99.90
15450;DHT22;7826;49.784;9.934;2023-06-22T06:50:27;24.30;99.90
15450;DHT22;7826;49.784;9.934;2023-06-22T06:52:54;24.20;99.90
15450;DHT22;7826;49.784;9.934;2023-06-22T06:55:22;24.30;99.90
15450;DHT22;7826;49.784;9.934;2023-06-22T06:57:51;24.30;99.90
15450;DHT22;7826;49.784;9.934;2023-06-22T07:00:19;24.30;99.90
15450;DHT22;7826;49.784;9.934;2023-06-22T07:02:46;24.20;99.90
15450;DHT22;7826;49.784;9.934;2023-06-22T07:05:14;24.40;99.90
15450;DHT22;7826;49.784;9.934;2023-06-22T07:07:41;24.50;99.90
15450;DHT22;7826;49.784;9.934;2023-06-22T07:10:10;24.50;99.20
15450;DHT22;7826;49.784;9.934;2023-06-22T07:12:37;24.50;98.60
15450;DHT22;7826;49.784;9.934;2023-06-22T07:15:04;24.50;99.20
15450;DHT22;7826;49.784;9.934;2023-06-22T07:17:31;24.40;99.60
15450;DHT22;7826;49.784;9.934;2023-06-22T07:19:58;24.40;99.90
15450;DHT22;7826;49.784;9.934;2023-06-22T07:22:24;24.40;99.90
15450;DHT22;7826;49.784;9.934;2023-06-22T07:24:51;24.20;99.90
15450;DHT22;7826;49.784;9.934;2023-06-22T07:27:18;24.20;99.90
15450;DHT22;7826;49.784;9.934;2023-06-22T07:29:46;24.30;99.90
15450;DHT22;7826;49.784;9.934;2023-06-22T07:32:12;24.30;99.90
15450;DHT22;7826;49.784;9.934;2023-06-22T07:34:39;24.20;99.90
15450;DHT22;7826;49.784;9.934;2023-06-22T07:37:05;24.40;99.90
15450;DHT22;7826;49.784;9.934;2023-06-22T07:39:32;24.30;99.90
15450;DHT22;7826;49.784;9.934;2023-06-22T07:41:59;24.40;99.90
15450;DHT22;7826;49.784;9.934;2023-06-22T07:44:25;24.40;99.90
15450;DHT22;7826;49.784;9.934;2023-06-22T07:46:52;24.30;99.80
15450;DHT22;7826;49.784;9.934;2023-06-22T07:49:18;24.20;99.80
15450;DHT22;7826;49.784;9.934;2023-06-22T07:51:45;24.20;99.90
15450;DHT22;7826;49.784;9.934;2023-06-22T07:54:11;24.20;99.90
15450;DHT22;7826;49.784;9.934;2023-06-22T07:56:38;24.20;99.40
15450;DHT22;7826;49.784;9.934;2023-06-22T07:59:04;24.30;99.90
15450;DHT22;7826;49.784;9.934;2023-06-22T08:01:31;24.30;99.90
15450;DHT22;7826;49.784;9.934;2023-06-22T08:03:57;24.50;99.90
15450;DHT22;7826;49.784;9.934;2023-06-22T08:06:24;24.50;99.90
15450;DHT22;7826;49.784;9.934;2023-06-22T08:08:50;24.70;99.70
15450;DHT22;7826;49.784;9.934;2023-06-22T08:11:20;24.60;99.90
15450;DHT22;7826;49.784;9.934;2023-06-22T08:13:49;24.70;99.90
15450;DHT22;7826;49.784;9.934;2023-06-22T08:16:16;24.80;99.50
15450;DHT22;7826;49.784;9.934;2023-06-22T08:18:43;25.10;98.30
15450;DHT22;7826;49.784;9.934;2023-06-22T08:21:09;25.10;98.80
15450;DHT22;7826;49.784;9.934;2023-06-22T08:23:37;25.20;98.80
15450;DHT22;7826;49.784;9.934;2023-06-22T08:26:04;25.20;98.00
15450;DHT22;7826;49.784;9.934;2023-06-22T08:28:30;25.40;97.70
15450;DHT22;7826;49.784;9.934;2023-06-22T08:30:57;25.60;98.20
15450;DHT22;7826;49.784;9.934;2023-06-22T08:33:24;25.60;96.70
15450;DHT22;7826;49.784;9.934;2023-06-22T08:35:58;25.60;96.40
15450;DHT22;7826;49.784;9.934;2023-06-22T08:38:24;25.60;95.50
15450;DHT22;7826;49.784;9.934;2023-06-22T08:40:51;25.40;95.40
15450;DHT22;7826;49.784;9.934;2023-06-22T08:43:17;25.40;95.70
15450;DHT22;7826;49.784;9.934;2023-06-22T08:45:44;25.50;96.20
15450;DHT22;7826;49.784;9.934;2023-06-22T08:48:11;25.60;95.70
15450;DHT22;7826;49.784;9.934;2023-06-22T08:50:38;25.80;93.90
15450;DHT22;7826;49.784;9.934;2023-06-22T08:53:06;25.60;94.00
15450;DHT22;7826;49.784;9.934;2023-06-22T08:55:33;25.30;93.50
15450;DHT22;7826;49.784;9.934;2023-06-22T08:58:00;25.50;94.60
15450;DHT22;7826;49.784;9.934;2023-06-22T09:00:27;25.40;93.70
15450;DHT22;7826;49.784;9.934;2023-06-22T09:02:55;25.50;94.00
15450;DHT22;7826;49.784;9.934;2023-06-22T09:05:25;25.20;93.80
15450;DHT22;7826;49.784;9.934;2023-06-22T09:07:52;25.30;92.70
15450;DHT22;7826;49.784;9.934;2023-06-22T09:10:21;25.30;91.80
15450;DHT22;7826;49.784;9.934;2023-06-22T09:12:47;25.50;93.40
15450;DHT22;7826;49.784;9.934;2023-06-22T09:15:14;25.70;91.70
15450;DHT22;7826;49.784;9.934;2023-06-22T09:17:41;25.70;90.50
15450;DHT22;7826;49.784;9.934;2023-06-22T09:20:08;25.60;90.80
15450;DHT22;7826;49.784;9.934;2023-06-22T09:22:37;25.80;91.60
15450;DHT22;7826;49.784;9.934;2023-06-22T09:25:04;25.90;86.90
15450;DHT22;7826;49.784;9.934;2023-06-22T09:27:31;25.70;88.40
15450;DHT22;7826;49.784;9.934;2023-06-22T09:29:57;25.70;85.90
15450;DHT22;7826;49.784;9.934;2023-06-22T09:32:25;25.70;86.10
15450;DHT22;7826;49.784;9.934;2023-06-22T09:34:52;25.80;87.90
15450;DHT22;7826;49.784;9.934;2023-06-22T09:37:19;25.90;87.10
15450;DHT22;7826;49.784;9.934;2023-06-22T09:39:45;26.10;86.00
15450;DHT22;7826;49.784;9.934;2023-06-22T09:42:12;26.10;89.50
15450;DHT22;7826;49.784;9.934;2023-06-22T09:44:39;26.70;90.40
15450;DHT22;7826;49.784;9.934;2023-06-22T09:47:06;27.00;88.80
15450;DHT22;7826;49.784;9.934;2023-06-22T09:49:33;27.00;81.10
15450;DHT22;7826;49.784;9.934;2023-06-22T09:51:59;27.20;82.60
15450;DHT22;7826;49.784;9.934;2023-06-22T09:54:26;27.40;80.70
15450;DHT22;7826;49.784;9.934;2023-06-22T09:56:52;27.20;80.80
15450;DHT22;7826;49.784;9.934;2023-06-22T09:59:19;27.50;80.60
15450;DHT22;7826;49.784;9.934;2023-06-22T10:01:45;27.40;79.30
15450;DHT22;7826;49.784;9.934;2023-06-22T10:04:12;27.30;81.60
15450;DHT22;7826;49.784;9.934;2023-06-22T10:06:38;27.60;82.00
15450;DHT22;7826;49.784;9.934;2023-06-22T10:09:09;28.00;82.90
15450;DHT22;7826;49.784;9.934;2023-06-22T10:11:36;28.00;80.80
15450;DHT22;7826;49.784;9.934;2023-06-22T10:14:03;27.90;78.40
15450;DHT22;7826;49.784;9.934;2023-06-22T10:16:31;27.70;78.90
15450;DHT22;7826;49.784;9.934;2023-06-22T10:18:57;27.80;79.60
15450;DHT22;7826;49.784;9.934;2023-06-22T10:21:24;27.80;80.00
15450;DHT22;7826;49.784;9.934;2023-06-22T10:23:52;28.20;78.30
15450;DHT22;7826;49.784;9.934;2023-06-22T10:26:19;28.50;77.10
15450;DHT22;7826;49.784;9.934;2023-06-22T10:28:45;28.60;78.00
15450;DHT22;7826;49.784;9.934;2023-06-22T10:31:12;28.50;76.10
15450;DHT22;7826;49.784;9.934;2023-06-22T10:33:38;28.60;75.50
15450;DHT22;7826;49.784;9.934;2023-06-22T10:36:07;28.90;75.40
15450;DHT22;7826;49.784;9.934;2023-06-22T10:38:34;29.10;72.40
15450;DHT22;7826;49.784;9.934;2023-06-22T10:41:00;28.90;72.10
15450;DHT22;7826;49.784;9.934;2023-06-22T10:43:27;28.80;73.00
15450;DHT22;7826;49.784;9.934;2023-06-22T10:45:54;28.90;73.80
15450;DHT22;7826;49.784;9.934;2023-06-22T10:48:20;28.70;73.10
15450;DHT22;7826;49.784;9.934;2023-06-22T10:50:47;28.50;73.00
15450;DHT22;7826;49.784;9.934;2023-06-22T10:53:14;28.60;73.30
15450;DHT22;7826;49.784;9.934;2023-06-22T10:55:40;28.60;73.60
15450;DHT22;7826;49.784;9.934;2023-06-22T10:58:07;28.70;74.00
15450;DHT22;7826;49.784;9.934;2023-06-22T11:00:33;28.90;76.30
15450;DHT22;7826;49.784;9.934;2023-06-22T11:03:00;29.10;72.50
15450;DHT22;7826;49.784;9.934;2023-06-22T11:05:26;29.10;72.10
15450;DHT22;7826;49.784;9.934;2023-06-22T11:07:53;29.10;69.50
15450;DHT22;7826;49.784;9.934;2023-06-22T11:10:19;29.30;68.20
15450;DHT22;7826;49.784;9.934;2023-06-22T11:12:46;29.60;69.40
15450;DHT22;7826;49.784;9.934;2023-06-22T11:15:12;29.80;65.60
15450;DHT22;7826;49.784;9.934;2023-06-22T11:17:39;29.60;66.20
15450;DHT22;7826;49.784;9.934;2023-06-22T11:20:06;29.60;66.90
15450;DHT22;7826;49.784;9.934;2023-06-22T11:22:39;29.50;65.50
15450;DHT22;7826;49.784;9.934;2023-06-22T11:25:06;29.30;62.20
15450;DHT22;7826;49.784;9.934;2023-06-22T11:27:33;29.40;63.40
15450;DHT22;7826;49.784;9.934;2023-06-22T11:30:00;29.20;65.60
15450;DHT22;7826;49.784;9.934;2023-06-22T11:32:27;29.20;64.60
15450;DHT22;7826;49.784;9.934;2023-06-22T11:34:53;29.20;64.60
15450;DHT22;7826;49.784;9.934;2023-06-22T11:37:20;29.10;64.30
15450;DHT22;7826;49.784;9.934;2023-06-22T11:39:46;29.40;65.10
15450;DHT22;7826;49.784;9.934;2023-06-22T11:42:13;29.60;63.60
15450;DHT22;7826;49.784;9.934;2023-06-22T11:44:39;29.60;63.90
15450;DHT22;7826;49.784;9.934;2023-06-22T11:47:06;29.60;62.30
15450;DHT22;7826;49.784;9.934;2023-06-22T11:49:33;29.80;60.60
15450;DHT22;7826;49.784;9.934;2023-06-22T11:51:59;29.70;60.10
15450;DHT22;7826;49.784;9.934;2023-06-22T11:54:26;29.70;59.60
15450;DHT22;7826;49.784;9.934;2023-06-22T11:56:52;29.50;60.30
15450;DHT22;7826;49.784;9.934;2023-06-22T11:59:19;29.60;59.80
15450;DHT22;7826;49.784;9.934;2023-06-22T12:01:47;29.70;58.60
15450;DHT22;7826;49.784;9.934;2023-06-22T12:04:15;29.80;59.40
15450;DHT22;7826;49.784;9.934;2023-06-22T12:06:41;29.40;58.90
15450;DHT22;7826;49.784;9.934;2023-06-22T12:09:10;29.20;59.50
15450;DHT22;7826;49.784;9.934;2023-06-22T12:11:36;29.30;59.40
15450;DHT22;7826;49.784;9.934;2023-06-22T12:14:04;29.20;59.60
15450;DHT22;7826;49.784;9.934;2023-06-22T12:16:30;29.50;58.30
15450;DHT22;7826;49.784;9.934;2023-06-22T12:18:57;29.50;57.30
15450;DHT22;7826;49.784;9.934;2023-06-22T12:21:23;29.70;58.30
15450;DHT22;7826;49.784;9.934;2023-06-22T12:23:50;29.70;57.80
15450;DHT22;7826;49.784;9.934;2023-06-22T12:26:16;29.90;57.10
15450;DHT22;7826;49.784;9.934;2023-06-22T12:28:43;29.50;58.40
15450;DHT22;7826;49.784;9.934;2023-06-22T12:31:09;29.90;57.90
15450;DHT22;7826;49.784;9.934;2023-06-22T12:33:36;29.90;59.50
15450;DHT22;7826;49.784;9.934;2023-06-22T12:36:03;29.90;57.70
15450;DHT22;7826;49.784;9.934;2023-06-22T12:38:31;29.50;56.80
15450;DHT22;7826;49.784;9.934;2023-06-22T12:40:57;29.80;58.40
15450;DHT22;7826;49.784;9.934;2023-06-22T12:43:24;29.90;57.10
15450;DHT22;7826;49.784;9.934;2023-06-22T12:45:50;30.10;57.70
15450;DHT22;7826;49.784;9.934;2023-06-22T12:48:17;30.10;55.50
15450;DHT22;7826;49.784;9.934;2023-06-22T12:50:43;30.10;56.50
15450;DHT22;7826;49.784;9.934;2023-06-22T12:53:10;29.90;57.30
15450;DHT22;7826;49.784;9.934;2023-06-22T12:55:37;30.10;57.00
15450;DHT22;7826;49.784;9.934;2023-06-22T12:58:03;30.30;56.00
15450;DHT22;7826;49.784;9.934;2023-06-22T13:00:29;30.30;58.10
15450;DHT22;7826;49.784;9.934;2023-06-22T13:02:56;30.80;56.80
15450;DHT22;7826;49.784;9.934;2023-06-22T13:05:22;31.10;56.20
15450;DHT22;7826;49.784;9.934;2023-06-22T13:07:49;31.10;55.10
15450;DHT22;7826;49.784;9.934;2023-06-22T13:10:16;31.20;55.60
15450;DHT22;7826;49.784;9.934;2023-06-22T13:12:42;31.30;54.40
15450;DHT22;7826;49.784;9.934;2023-06-22T13:15:09;31.30;54.80
15450;DHT22;7826;49.784;9.934;2023-06-22T13:17:35;31.00;54.80
15450;DHT22;7826;49.784;9.934;2023-06-22T13:20:02;30.80;56.10
15450;DHT22;7826;49.784;9.934;2023-06-22T13:22:35;30.80;56.00
15450;DHT22;7826;49.784;9.934;2023-06-22T13:25:11;30.80;54.00
15450;DHT22;7826;49.784;9.934;2023-06-22T13:27:42;30.50;56.20
15450;DHT22;7826;49.784;9.934;2023-06-22T13:30:09;30.90;55.30
15450;DHT22;7826;49.784;9.934;2023-06-22T13:32:36;31.10;55.40
15450;DHT22;7826;49.784;9.934;2023-06-22T13:35:02;31.10;54.60
15450;DHT22;7826;49.784;9.934;2023-06-22T13:37:29;31.20;54.50
15450;DHT22;7826;49.784;9.934;2023-06-22T13:39:55;31.30;56.10
15450;DHT22;7826;49.784;9.934;2023-06-22T13:42:22;31.20;54.20
15450;DHT22;7826;49.784;9.934;2023-06-22T13:44:49;31.20;55.50
15450;DHT22;7826;49.784;9.934;2023-06-22T13:47:15;30.50;55.20
15450;DHT22;7826;49.784;9.934;2023-06-22T13:49:42;30.70;56.30
15450;DHT22;7826;49.784;9.934;2023-06-22T13:52:08;31.10;54.90
15450;DHT22;7826;49.784;9.934;2023-06-22T13:54:36;30.90;55.30
15450;DHT22;7826;49.784;9.934;2023-06-22T13:57:03;31.20;54.00
15450;DHT22;7826;49.784;9.934;2023-06-22T13:59:29;30.70;53.60
15450;DHT22;7826;49.784;9.934;2023-06-22T14:01:56;30.60;55.70
15450;DHT22;7826;49.784;9.934;2023-06-22T14:04:23;30.70;54.00
15450;DHT22;7826;49.784;9.934;2023-06-22T14:06:50;30.60;54.90
15450;DHT22;7826;49.784;9.934;2023-06-22T14:09:16;30.80;54.90
15450;DHT22;7826;49.784;9.934;2023-06-22T14:11:43;31.00;54.10
15450;DHT22;7826;49.784;9.934;2023-06-22T14:14:09;30.70;54.60
15450;DHT22;7826;49.784;9.934;2023-06-22T14:16:36;30.70;54.40
15450;DHT22;7826;49.784;9.934;2023-06-22T14:19:02;31.00;54.90
15450;DHT22;7826;49.784;9.934;2023-06-22T14:21:29;30.90;54.30
15450;DHT22;7826;49.784;9.934;2023-06-22T14:23:55;30.80;54.70
15450;DHT22;7826;49.784;9.934;2023-06-22T14:26:22;30.50;54.70
15450;DHT22;7826;49.784;9.934;2023-06-22T14:28:49;30.50;54.60
15450;DHT22;7826;49.784;9.934;2023-06-22T14:31:19;30.50;54.00
15450;DHT22;7826;49.784;9.934;2023-06-22T14:33:47;30.80;55.50
15450;DHT22;7826;49.784;9.934;2023-06-22T14:36:15;30.90;55.00
15450;DHT22;7826;49.784;9.934;2023-06-22T14:38:41;30.90;53.80
15450;DHT22;7826;49.784;9.934;2023-06-22T14:41:08;30.40;54.20
15450;DHT22;7826;49.784;9.934;2023-06-22T14:43:34;30.50;55.70
15450;DHT22;7826;49.784;9.934;2023-06-22T14:46:01;30.60;55.10
15450;DHT22;7826;49.784;9.934;2023-06-22T14:48:28;30.40;55.30
15450;DHT22;7826;49.784;9.934;2023-06-22T14:50:54;30.50;55.90
15450;DHT22;7826;49.784;9.934;2023-06-22T14:53:21;30.30;55.90
15450;DHT22;7826;49.784;9.934;2023-06-22T14:55:47;30.50;55.50
15450;DHT22;7826;49.784;9.934;2023-06-22T14:58:14;30.50;55.20
15450;DHT22;7826;49.784;9.934;2023-06-22T15:00:40;30.50;55.50
15450;DHT22;7826;49.784;9.934;2023-06-22T15:03:07;30.30;55.20
15450;DHT22;7826;49.784;9.934;2023-06-22T15:05:37;30.00;55.40
15450;DHT22;7826;49.784;9.934;2023-06-22T15:08:03;29.70;56.00
15450;DHT22;7826;49.784;9.934;2023-06-22T15:10:30;29.50;56.00
15450;DHT22;7826;49.784;9.934;2023-06-22T15:12:56;29.50;56.90
15450;DHT22;7826;49.784;9.934;2023-06-22T15:15:23;29.70;56.30
15450;DHT22;7826;49.784;9.934;2023-06-22T15:17:49;29.50;56.50
15450;DHT22;7826;49.784;9.934;2023-06-22T15:20:16;29.40;57.20
15450;DHT22;7826;49.784;9.934;2023-06-22T15:22:42;29.40;57.40
15450;DHT22;7826;49.784;9.934;2023-06-22T15:25:09;29.50;57.40
15450;DHT22;7826;49.784;9.934;2023-06-22T15:27:36;29.50;57.20
15450;DHT22;7826;49.784;9.934;2023-06-22T15:30:03;29.80;58.10
15450;DHT22;7826;49.784;9.934;2023-06-22T15:32:30;29.90;56.70
15450;DHT22;7826;49.784;9.934;2023-06-22T15:34:57;29.70;57.80
15450;DHT22;7826;49.784;9.934;2023-06-22T15:37:23;29.90;56.30
15450;DHT22;7826;49.784;9.934;2023-06-22T15:39:50;29.90;56.70
15450;DHT22;7826;49.784;9.934;2023-06-22T15:42:16;29.90;57.20
15450;DHT22;7826;49.784;9.934;2023-06-22T15:44:43;30.00;56.70
15450;DHT22;7826;49.784;9.934;2023-06-22T15:47:10;30.10;56.90
15450;DHT22;7826;49.784;9.934;2023-06-22T15:49:37;29.90;56.50
15450;DHT22;7826;49.784;9.934;2023-06-22T15:52:03;29.90;55.90
15450;DHT22;7826;49.784;9.934;2023-06-22T15:54:30;29.60;56.50
15450;DHT22;7826;49.784;9.934;2023-06-22T15:56:57;29.70;57.40